»·PEaware :: N902SQ KFLG-50R

N902SQ :: KFLG-50R

FLIGHT INFORMATION

Flight Status: Arrived
Operator: Privately registered:
United States
More flights under this callsign
Pilot: Gabor H. (24209)
Aircraft: SOCATA TBM-900
(TBM9)
More flights by this aircraft type
Origin: KFLG Flagstaff Pulliam
United States
Destination: 50R Lockhart Mun
United States
More flights between these airports :: More routes between these airports
Route: FLG1 OATES V12 INW J108 SJN J74 CNX Q20 JCT V222 BETTI
File this flight plan on PilotEdge
Remarks:
Altitude:
(Current/Filed)
31,000ft
Speed:
(Current/Filed)
315kts
Departed: 18-Oct-23 02:25 PM
Arrived: 18-Oct-23 05:08 PM
Distance/Time
Traveled:
775nm/2:43
Distance/Time
To Go:
Arrived

Flight Plot

Page will automatically refresh every two minutes.

Flight plan parsing failed; only flown route is shown


Map Options




Map Legend


Flown Route
Filed Route
Departure Airport
Arrival Airport
Navaid (VOR, NDB)
Fix

Horizontal Profiles

Position Reports

Time Latitude Longitude Heading Altitude Ground
Speed
18-Oct-23 14:10 35.136623 -111.676376 222 7004ft 0kts
18-Oct-23 14:11 35.136623 -111.676376 222 7004ft 0kts
18-Oct-23 14:12 35.136623 -111.676376 222 7004ft 0kts
18-Oct-23 14:13 35.136623 -111.676376 222 7004ft 0kts
18-Oct-23 14:14 35.136623 -111.676376 222 7004ft 0kts
18-Oct-23 14:15 35.136623 -111.676376 222 7004ft 0kts
18-Oct-23 14:16 35.136623 -111.676376 222 7004ft 0kts
18-Oct-23 14:17 35.136623 -111.676376 222 7004ft 0kts
18-Oct-23 14:18 35.136623 -111.676376 222 7004ft 0kts
18-Oct-23 14:19 35.136623 -111.676376 222 7004ft 0kts
18-Oct-23 14:20 35.136297 -111.676249 123 7004ft 5kts
18-Oct-23 14:21 35.134358 -111.677363 220 7003ft 14kts
18-Oct-23 14:22 35.131823 -111.679660 145 6993ft 0kts
18-Oct-23 14:23 35.131370 -111.679045 116 6997ft 8kts
18-Oct-23 14:24 35.147159 -111.661862 41 7332ft 140kts
18-Oct-23 14:25 35.135889 -111.633408 205 9291ft 152kts
18-Oct-23 14:26 35.102007 -111.664869 217 11342ft 158kts
18-Oct-23 14:27 35.062486 -111.684805 184 13186ft 166kts
18-Oct-23 14:28 35.016082 -111.690711 183 15249ft 172kts
18-Oct-23 14:29 34.967708 -111.696922 182 17207ft 180kts
18-Oct-23 14:30 34.916899 -111.703442 180 19243ft 187kts
18-Oct-23 14:31 34.870230 -111.695602 102 21106ft 164kts
18-Oct-23 14:32 34.883426 -111.645967 72 22849ft 160kts
18-Oct-23 14:33 34.894758 -111.593776 73 24985ft 160kts
18-Oct-23 14:34 34.906003 -111.540823 73 26821ft 164kts
18-Oct-23 14:35 34.917476 -111.486618 72 28526ft 167kts
18-Oct-23 14:36 34.929192 -111.431193 72 30065ft 171kts
18-Oct-23 14:37 34.941288 -111.373775 71 31331ft 184kts
18-Oct-23 14:38 34.956182 -111.302979 72 31352ft 242kts
18-Oct-23 14:39 34.973763 -111.219036 72 31286ft 265kts
18-Oct-23 14:40 34.992281 -111.130326 72 31233ft 275kts
18-Oct-23 14:41 35.011156 -111.039495 72 31214ft 275kts
18-Oct-23 14:42 35.029727 -110.949820 72 31214ft 271kts
18-Oct-23 14:43 35.048092 -110.860791 72 31213ft 270kts
18-Oct-23 14:44 35.051200 -110.769060 106 31211ft 290kts
18-Oct-23 14:45 35.017726 -110.678652 108 31216ft 295kts
18-Oct-23 14:46 34.983244 -110.587462 109 31215ft 297kts
18-Oct-23 14:47 34.948530 -110.495955 109 31215ft 298kts
18-Oct-23 14:48 34.913660 -110.404278 109 31214ft 299kts
18-Oct-23 14:49 34.878662 -110.312541 109 31238ft 299kts
18-Oct-23 14:50 34.843496 -110.220600 110 31267ft 300kts
18-Oct-23 14:51 34.808230 -110.128681 110 31282ft 301kts
18-Oct-23 14:52 34.772645 -110.036173 110 31273ft 302kts
18-Oct-23 14:53 34.736915 -109.943565 110 31273ft 303kts
18-Oct-23 14:54 34.700921 -109.850527 110 31274ft 305kts
18-Oct-23 14:55 34.664771 -109.757363 110 31279ft 305kts
18-Oct-23 14:56 34.628623 -109.664455 110 31288ft 305kts
18-Oct-23 14:57 34.592264 -109.571274 110 31307ft 305kts
18-Oct-23 14:58 34.555923 -109.478398 110 31321ft 305kts
18-Oct-23 14:59 34.519424 -109.385382 110 31327ft 306kts
18-Oct-23 15:00 34.482749 -109.292173 110 31330ft 307kts
18-Oct-23 15:01 34.445909 -109.198813 110 31330ft 307kts
18-Oct-23 15:02 34.423452 -109.102162 85 31338ft 297kts
18-Oct-23 15:03 34.423621 -109.001956 86 31330ft 298kts
18-Oct-23 15:04 34.423242 -108.901542 86 31329ft 298kts
18-Oct-23 15:05 34.422771 -108.801025 86 31329ft 299kts
18-Oct-23 15:06 34.422211 -108.700156 86 31328ft 299kts
18-Oct-23 15:07 34.421570 -108.599234 86 31325ft 299kts
18-Oct-23 15:08 34.420847 -108.498581 86 31321ft 300kts
18-Oct-23 15:09 34.420039 -108.397304 86 31304ft 300kts
18-Oct-23 15:10 34.419147 -108.296053 87 31283ft 301kts
18-Oct-23 15:11 34.418171 -108.194684 87 31267ft 301kts
18-Oct-23 15:12 34.417102 -108.093460 87 31265ft 301kts
18-Oct-23 15:13 34.415968 -107.992083 87 31264ft 301kts
18-Oct-23 15:14 34.414739 -107.890768 87 31265ft 302kts
18-Oct-23 15:15 34.413424 -107.789082 87 31265ft 302kts
18-Oct-23 15:16 34.412023 -107.687453 87 31234ft 303kts
18-Oct-23 15:17 34.410536 -107.585439 87 31179ft 303kts
18-Oct-23 15:18 34.408960 -107.483273 87 31134ft 303kts
18-Oct-23 15:19 34.407299 -107.381341 86 31129ft 302kts
18-Oct-23 15:20 34.405556 -107.279232 87 31129ft 302kts
18-Oct-23 15:21 34.403737 -107.177611 87 31129ft 303kts
18-Oct-23 15:22 34.401825 -107.075661 87 31128ft 303kts
18-Oct-23 15:23 34.399839 -106.973596 87 31128ft 304kts
18-Oct-23 15:24 34.397737 -106.871159 87 31128ft 304kts
18-Oct-23 15:25 34.395569 -106.768843 87 31128ft 305kts
18-Oct-23 15:26 34.393301 -106.665944 87 31128ft 306kts
18-Oct-23 15:27 34.390936 -106.563131 87 31127ft 306kts
18-Oct-23 15:28 34.388466 -106.459834 87 31127ft 307kts
18-Oct-23 15:29 34.385917 -106.356442 87 31127ft 308kts
18-Oct-23 15:30 34.383261 -106.252489 88 31136ft 308kts
18-Oct-23 15:31 34.380538 -106.149006 88 31150ft 309kts
18-Oct-23 15:32 34.377703 -106.045018 88 31169ft 309kts
18-Oct-23 15:33 34.374794 -105.941140 88 31214ft 309kts
18-Oct-23 15:34 34.371786 -105.837106 88 31260ft 309kts
18-Oct-23 15:35 34.368689 -105.733108 88 31266ft 311kts
18-Oct-23 15:36 34.331644 -105.639799 137 31261ft 325kts
18-Oct-23 15:37 34.262702 -105.569307 136 31273ft 325kts
18-Oct-23 15:38 34.194023 -105.497984 136 31275ft 325kts
18-Oct-23 15:39 34.125451 -105.426900 136 31275ft 326kts
18-Oct-23 15:40 34.056696 -105.355802 136 31276ft 326kts
18-Oct-23 15:41 33.987603 -105.284387 137 31278ft 327kts
18-Oct-23 15:42 33.918593 -105.213430 138 31276ft 327kts
18-Oct-23 15:43 33.849386 -105.142331 138 31273ft 327kts
18-Oct-23 15:44 33.780197 -105.071406 138 31238ft 328kts
18-Oct-23 15:45 33.710634 -105.000254 138 31173ft 329kts
18-Oct-23 15:46 33.640923 -104.929107 138 31119ft 329kts
18-Oct-23 15:47 33.571328 -104.858111 136 31078ft 330kts
18-Oct-23 15:48 33.513532 -104.773353 127 31069ft 328kts
18-Oct-23 15:49 33.456699 -104.687746 127 31059ft 328kts
18-Oct-23 15:50 33.399901 -104.602405 127 31055ft 328kts
18-Oct-23 15:51 33.342994 -104.517098 127 31056ft 329kts
18-Oct-23 15:52 33.285861 -104.431650 127 31056ft 329kts
18-Oct-23 15:53 33.228792 -104.346490 128 31056ft 329kts
18-Oct-23 15:54 33.171579 -104.261337 128 31054ft 329kts
18-Oct-23 15:55 33.114235 -104.176164 128 31055ft 330kts
18-Oct-23 15:56 33.056759 -104.090997 128 31060ft 330kts
18-Oct-23 15:57 32.999088 -104.005743 128 31067ft 331kts
18-Oct-23 15:58 32.941292 -103.920078 127 31067ft 333kts
18-Oct-23 15:59 32.884183 -103.833362 128 31063ft 334kts
18-Oct-23 16:00 32.826727 -103.746325 128 31064ft 335kts
18-Oct-23 16:01 32.769119 -103.659258 128 31064ft 335kts
18-Oct-23 16:02 32.711523 -103.572411 128 31065ft 336kts
18-Oct-23 16:03 32.653610 -103.485287 128 31065ft 336kts
18-Oct-23 16:04 32.595634 -103.398271 128 31066ft 337kts
18-Oct-23 16:05 32.537460 -103.311165 129 31062ft 337kts
18-Oct-23 16:06 32.479263 -103.224221 129 31062ft 337kts
18-Oct-23 16:07 32.420545 -103.136773 126 31093ft 341kts
18-Oct-23 16:09 32.361378 -103.048731 127 31093ft 344kts
18-Oct-23 16:10 32.301524 -102.959935 127 31087ft 347kts
18-Oct-23 16:11 32.241156 -102.870589 127 31044ft 349kts
18-Oct-23 16:12 32.180360 -102.780829 127 31025ft 351kts
18-Oct-23 16:13 32.119409 -102.691055 127 31030ft 351kts
18-Oct-23 16:14 32.058233 -102.601164 128 31032ft 352kts
18-Oct-23 16:15 31.996761 -102.511052 128 31034ft 353kts
18-Oct-23 16:16 31.935096 -102.420872 129 31031ft 356kts
18-Oct-23 16:17 31.872824 -102.330027 129 31010ft 356kts
18-Oct-23 16:18 31.810704 -102.239625 129 31006ft 355kts
18-Oct-23 16:19 31.748693 -102.149572 129 31006ft 355kts
18-Oct-23 16:20 31.686594 -102.059618 129 31009ft 355kts
18-Oct-23 16:21 31.624451 -101.969803 129 31007ft 355kts
18-Oct-23 16:22 31.562241 -101.880103 129 31009ft 356kts
18-Oct-23 16:23 31.499682 -101.790111 130 31010ft 357kts
18-Oct-23 16:24 31.437007 -101.700161 130 31012ft 358kts
18-Oct-23 16:25 31.373997 -101.609955 130 31015ft 358kts
18-Oct-23 16:26 31.310896 -101.519818 130 31025ft 359kts
18-Oct-23 16:27 31.247507 -101.429480 131 31024ft 360kts
18-Oct-23 16:28 31.183863 -101.338899 130 31019ft 362kts
18-Oct-23 16:29 31.140677 -101.232638 114 31017ft 363kts
18-Oct-23 16:30 31.100105 -101.124787 114 31020ft 363kts
18-Oct-23 16:31 31.059316 -101.016805 114 31019ft 364kts
18-Oct-23 16:32 31.018380 -100.908728 114 30996ft 365kts
18-Oct-23 16:33 30.977255 -100.800476 114 30991ft 365kts
18-Oct-23 16:34 30.936130 -100.692564 114 31011ft 366kts
18-Oct-23 16:35 30.894670 -100.584073 114 31031ft 366kts
18-Oct-23 16:36 30.853255 -100.476076 114 31042ft 367kts
18-Oct-23 16:37 30.811481 -100.367434 114 31042ft 368kts
18-Oct-23 16:37 30.776559 -100.276907 115 31026ft 368kts
18-Oct-23 16:39 30.727657 -100.150485 115 31005ft 368kts
18-Oct-23 16:40 30.685471 -100.041770 115 30990ft 369kts
18-Oct-23 16:41 30.643229 -99.933250 115 30992ft 369kts
18-Oct-23 16:41 30.607848 -99.842616 115 30992ft 370kts
18-Oct-23 16:42 30.568460 -99.732265 112 30995ft 371kts
18-Oct-23 16:43 30.529933 -99.621475 112 30994ft 371kts
18-Oct-23 16:45 30.484643 -99.491720 112 30995ft 372kts
18-Oct-23 16:46 30.445758 -99.380697 112 31000ft 373kts
18-Oct-23 16:46 30.412770 -99.286813 113 30366ft 391kts
18-Oct-23 16:47 30.370350 -99.166342 112 28258ft 414kts
18-Oct-23 16:48 30.327215 -99.044309 112 26054ft 404kts
18-Oct-23 16:49 30.285522 -98.926749 111 24003ft 384kts
18-Oct-23 16:50 30.245988 -98.815662 111 22078ft 368kts
18-Oct-23 16:51 30.207657 -98.708301 111 20199ft 354kts
18-Oct-23 16:52 30.169645 -98.605256 111 18370ft 345kts
18-Oct-23 16:53 30.132452 -98.504758 111 16591ft 334kts
18-Oct-23 16:54 30.096408 -98.407703 111 14852ft 325kts
18-Oct-23 16:55 30.061089 -98.312797 111 13148ft 319kts
18-Oct-23 16:56 30.027061 -98.221591 111 11476ft 299kts
18-Oct-23 16:57 29.995348 -98.136789 113 9842ft 281kts
18-Oct-23 16:58 29.964832 -98.055292 114 8231ft 274kts
18-Oct-23 16:59 29.940361 -97.972952 111 6651ft 268kts
18-Oct-23 17:00 29.916383 -97.892647 112 5108ft 263kts
18-Oct-23 17:01 29.892570 -97.813087 112 3597ft 260kts
18-Oct-23 17:02 29.870261 -97.738745 112 2148ft 231kts
18-Oct-23 17:03 29.851777 -97.677113 112 1460ft 166kts
18-Oct-23 17:04 29.868982 -97.644271 3 1515ft 141kts
18-Oct-23 17:05 29.880417 -97.666510 218 1078ft 86kts
18-Oct-23 17:06 29.858569 -97.672087 180 633ft 84kts
18-Oct-23 17:07 29.850316 -97.671847 99 525ft 0kts
18-Oct-23 17:08 29.851535 -97.671116 27 528ft 9kts
18-Oct-23 17:09 29.851924 -97.671139 359 528ft 0kts
18-Oct-23 17:10 29.851924 -97.671139 359 528ft 0kts
18-Oct-23 17:11 29.851924 -97.671139 359 528ft 0kts
18-Oct-23 17:12 29.851924 -97.671139 359 528ft 0kts

Navigation Log

Ident Type
Flight plan parsing failed, navigation log unavailable